createdAt,value
2019-05-23T00:01:03.609Z,80.17
2019-05-23T00:03:38.005Z,80.37
2019-05-23T00:06:11.500Z,79.98
2019-05-23T00:08:41.525Z,82.21
2019-05-23T00:11:32.616Z,82.81
2019-05-23T00:14:07.678Z,83.73
2019-05-23T00:16:38.597Z,84.15
2019-05-23T00:19:09.006Z,84.23
2019-05-23T00:21:42.718Z,84.72
2019-05-23T00:24:13.073Z,84.85
2019-05-23T00:26:43.617Z,84.51
2019-05-23T00:29:15.002Z,83.62
2019-05-23T00:31:49.692Z,81.77
2019-05-23T00:34:19.994Z,79.70
2019-05-23T00:36:49.652Z,79.10
2019-05-23T00:39:19.804Z,79.12
2019-05-23T00:41:50.766Z,79.31
2019-05-23T00:44:21.042Z,80.34
2019-05-23T00:46:51.071Z,80.56
2019-05-23T00:49:20.584Z,81.50
2019-05-23T00:51:50.524Z,81.96
2019-05-23T00:54:20.625Z,82.28
2019-05-23T00:56:50.448Z,82.77
2019-05-23T00:59:27.138Z,83.35
2019-05-23T01:01:52.612Z,83.97
2019-05-23T01:04:22.785Z,84.53
2019-05-23T01:06:54.064Z,85.03
2019-05-23T01:09:25.341Z,85.47
2019-05-23T01:11:55.488Z,85.65
2019-05-23T01:14:26.348Z,85.84
2019-05-23T01:16:56.181Z,86.01
2019-05-23T01:19:26.359Z,86.22
2019-05-23T01:22:02.521Z,86.25
2019-05-23T01:24:38.469Z,86.59
2019-05-23T01:27:08.638Z,86.60
2019-05-23T01:29:42.202Z,86.67
2019-05-23T01:32:24.183Z,86.86
2019-05-23T01:34:54.130Z,86.62
2019-05-23T01:37:24.837Z,86.77
2019-05-23T01:39:54.916Z,84.85
2019-05-23T01:42:25.952Z,83.75
2019-05-23T01:44:55.874Z,84.00
2019-05-23T01:47:27.600Z,83.99
2019-05-23T01:49:58.043Z,84.73
2019-05-23T01:52:27.834Z,85.89
2019-05-23T01:54:57.323Z,86.47
2019-05-23T01:57:26.864Z,86.97
2019-05-23T02:00:08.792Z,87.38
2019-05-23T02:02:29.515Z,87.42
2019-05-23T02:04:59.326Z,87.45
2019-05-23T02:07:30.238Z,87.75
2019-05-23T02:10:00.460Z,87.53
2019-05-23T02:12:30.957Z,87.09
2019-05-23T02:15:02.095Z,87.15
2019-05-23T02:17:32.609Z,87.22
2019-05-23T02:20:03.538Z,87.38
2019-05-23T02:22:33.461Z,87.72
2019-05-23T02:25:04.732Z,88.10
2019-05-23T02:27:34.165Z,88.14
2019-05-23T02:30:04.616Z,88.95
2019-05-23T02:32:35.445Z,88.69
2019-05-23T02:35:05.820Z,88.67
2019-05-23T02:37:52.887Z,88.45
2019-05-23T02:40:53.377Z,88.80
2019-05-23T02:43:25.735Z,88.65
2019-05-23T02:45:59.903Z,88.27
2019-05-23T02:48:36.208Z,87.99
2019-05-23T02:51:10.733Z,87.37
2019-05-23T02:53:40.643Z,86.57
2019-05-23T02:56:14.325Z,86.39
2019-05-23T02:59:04.750Z,86.03
2019-05-23T03:01:57.382Z,85.55
2019-05-23T03:04:30.197Z,85.36
2019-05-23T03:07:03.422Z,84.64
2019-05-23T03:09:36.182Z,84.28
2019-05-23T03:12:07.893Z,85.65
2019-05-23T03:14:39.160Z,86.75
2019-05-23T03:17:14.103Z,86.84
2019-05-23T03:19:56.822Z,87.56
2019-05-23T03:22:31.714Z,87.96
2019-05-23T03:25:04.612Z,88.25
2019-05-23T03:27:39.889Z,88.15
2019-05-23T03:30:14.323Z,87.77
2019-05-23T03:32:49.284Z,88.04
2019-05-23T03:35:34.329Z,87.61
2019-05-23T03:38:04.124Z,87.55
2019-05-23T03:40:35.974Z,87.63
2019-05-23T03:43:06.533Z,87.59
2019-05-23T03:45:40.304Z,87.38
2019-05-23T03:48:11.680Z,87.53
2019-05-23T03:50:41.677Z,87.45
2019-05-23T03:53:12.184Z,87.41
2019-05-23T03:55:42.575Z,87.31
2019-05-23T03:58:14.345Z,86.92
2019-05-23T04:00:52.701Z,86.61
2019-05-23T04:03:25.080Z,86.19
2019-05-23T04:05:55.215Z,85.40
2019-05-23T04:08:24.878Z,84.11
2019-05-23T04:10:55.353Z,83.06
2019-05-23T04:13:25.178Z,82.99
2019-05-23T04:15:54.710Z,82.45
2019-05-23T04:18:25.176Z,82.75
2019-05-23T04:20:54.677Z,82.83
2019-05-23T04:23:24.209Z,82.52
2019-05-23T04:25:53.723Z,81.55
2019-05-23T04:28:23.174Z,80.00
2019-05-23T04:30:53.216Z,79.67
2019-05-23T04:33:22.827Z,79.12
2019-05-23T04:35:52.299Z,77.67
2019-05-23T04:38:21.936Z,76.98
2019-05-23T04:40:51.493Z,77.12
2019-05-23T04:43:21.330Z,75.83
2019-05-23T04:45:50.898Z,75.08
2019-05-23T04:48:21.016Z,73.75
2019-05-23T04:50:50.669Z,71.11
2019-05-23T04:53:22.671Z,67.07
2019-05-23T04:55:53.133Z,62.76
2019-05-23T04:58:22.707Z,59.33
2019-05-23T05:00:52.284Z,55.94
2019-05-23T05:03:23.796Z,54.24
2019-05-23T05:05:53.364Z,51.10
2019-05-23T05:08:22.894Z,48.76
2019-05-23T05:10:52.543Z,46.22
2019-05-23T05:13:22.806Z,44.89
2019-05-23T05:15:52.307Z,45.32
2019-05-23T05:18:22.361Z,45.43
2019-05-23T05:20:52.158Z,47.08
2019-05-23T05:23:21.835Z,48.31
2019-05-23T05:25:51.438Z,51.14
2019-05-23T05:28:21.114Z,52.23
2019-05-23T05:30:50.789Z,52.42
2019-05-23T05:33:20.542Z,52.11
2019-05-23T05:35:50.093Z,50.95
2019-05-23T05:38:19.624Z,51.41
2019-05-23T05:40:49.629Z,51.16
2019-05-23T05:43:19.874Z,50.66
2019-05-23T05:45:49.650Z,51.37
2019-05-23T05:48:19.217Z,53.53
2019-05-23T05:50:48.807Z,54.79
2019-05-23T05:53:18.804Z,55.68
2019-05-23T05:55:48.277Z,56.13
2019-05-23T05:58:17.717Z,57.20
2019-05-23T06:00:58.850Z,57.54
2019-05-23T06:03:28.711Z,57.78
2019-05-23T06:06:10.790Z,58.30
2019-05-23T06:08:42.416Z,59.18
2019-05-23T06:11:12.455Z,59.25
2019-05-23T06:13:42.217Z,59.66
2019-05-23T06:16:11.694Z,61.17
2019-05-23T06:18:41.297Z,60.49
2019-05-23T06:21:12.324Z,60.52
2019-05-23T06:23:43.889Z,60.63
2019-05-23T06:26:13.413Z,61.49
2019-05-23T06:28:44.510Z,61.11
2019-05-23T06:31:14.296Z,59.94
2019-05-23T06:33:44.345Z,61.20
2019-05-23T06:36:14.503Z,60.24
2019-05-23T06:38:44.174Z,61.00
2019-05-23T06:41:14.295Z,60.51
2019-05-23T06:43:44.012Z,60.64
2019-05-23T06:46:16.387Z,61.58
2019-05-23T06:48:46.206Z,61.71
2019-05-23T06:51:15.955Z,62.18
2019-05-23T06:53:45.834Z,60.95
2019-05-23T06:56:15.678Z,61.07
2019-05-23T06:58:45.364Z,60.91
2019-05-23T07:01:14.858Z,61.35
2019-05-23T07:03:44.365Z,62.78
2019-05-23T07:06:16.977Z,63.21
2019-05-23T07:08:46.590Z,61.88
2019-05-23T07:11:19.919Z,61.64
2019-05-23T07:13:49.622Z,62.36
2019-05-23T07:16:19.643Z,61.74
2019-05-23T07:18:49.153Z,61.59
2019-05-23T07:21:18.668Z,61.42
2019-05-23T07:23:48.148Z,62.13
2019-05-23T07:26:17.701Z,61.95
2019-05-23T07:28:47.294Z,60.76
2019-05-23T07:31:17.662Z,60.65
2019-05-23T07:34:01.035Z,60.95
2019-05-23T07:36:18.864Z,61.35
2019-05-23T07:38:48.461Z,60.51
2019-05-23T07:41:18.325Z,61.15
2019-05-23T07:43:47.900Z,58.34
2019-05-23T07:46:17.415Z,58.17
2019-05-23T07:48:46.886Z,59.17
2019-05-23T07:51:16.683Z,60.17
2019-05-23T07:54:05.217Z,60.56
2019-05-23T07:56:36.527Z,59.61
2019-05-23T07:59:06.178Z,60.23
2019-05-23T08:01:38.095Z,59.86
2019-05-23T08:04:20.532Z,59.86
2019-05-23T08:06:40.280Z,59.42
2019-05-23T08:09:11.301Z,59.98
2019-05-23T08:11:40.869Z,60.33
2019-05-23T08:14:12.200Z,58.97
2019-05-23T08:16:42.088Z,58.62
2019-05-23T08:19:11.658Z,59.74
2019-05-23T08:21:41.175Z,59.13
2019-05-23T08:24:12.355Z,58.32
2019-05-23T08:26:41.971Z,58.97
2019-05-23T08:29:25.485Z,57.33
2019-05-23T08:31:43.401Z,57.35
2019-05-23T08:34:12.863Z,56.13
2019-05-23T08:36:42.874Z,56.52
2019-05-23T08:39:12.470Z,56.52
2019-05-23T08:41:42.269Z,57.15
2019-05-23T08:44:12.000Z,57.70
2019-05-23T08:46:42.177Z,55.88
2019-05-23T08:49:11.947Z,57.26
2019-05-23T08:51:41.516Z,56.36
2019-05-23T08:54:11.009Z,57.27
2019-05-23T08:56:40.631Z,58.09
2019-05-23T08:59:10.902Z,56.65
2019-05-23T09:01:40.805Z,57.33
2019-05-23T09:04:10.436Z,58.05
2019-05-23T09:06:40.240Z,58.07
2019-05-23T09:09:28.368Z,58.29
2019-05-23T09:11:42.281Z,57.94
2019-05-23T09:14:11.937Z,56.30
2019-05-23T09:16:41.871Z,56.58
2019-05-23T09:19:11.361Z,56.46
2019-05-23T09:21:41.093Z,57.54
2019-05-23T09:24:11.498Z,56.86
2019-05-23T09:26:41.088Z,56.44
2019-05-23T09:29:10.748Z,55.03
2019-05-23T09:31:40.426Z,56.03
2019-05-23T09:34:09.925Z,54.86
2019-05-23T09:36:39.541Z,54.61
2019-05-23T09:39:10.963Z,54.24
2019-05-23T09:41:41.083Z,54.72
2019-05-23T09:44:10.669Z,52.99
2019-05-23T09:46:40.225Z,53.81
2019-05-23T09:49:11.203Z,53.17
2019-05-23T09:51:41.072Z,53.33
2019-05-23T09:54:11.049Z,52.65
2019-05-23T09:56:40.626Z,53.00
2019-05-23T09:59:10.221Z,52.25
2019-05-23T10:01:39.757Z,50.89
2019-05-23T10:04:10.234Z,49.78
2019-05-23T10:06:39.711Z,49.88
2019-05-23T10:09:09.725Z,50.50
2019-05-23T10:11:39.317Z,51.30
2019-05-23T10:14:13.092Z,51.74
2019-05-23T10:16:42.610Z,49.69
2019-05-23T10:19:12.099Z,48.02
2019-05-23T10:21:41.641Z,48.80
2019-05-23T10:24:11.297Z,48.38
2019-05-23T10:26:40.806Z,49.15
2019-05-23T10:29:10.248Z,48.48
2019-05-23T10:31:39.741Z,47.05
2019-05-23T10:34:09.291Z,48.69
2019-05-23T10:36:38.747Z,46.94
2019-05-23T10:39:10.758Z,48.44
2019-05-23T10:41:40.399Z,49.05
2019-05-23T10:44:10.300Z,48.28
2019-05-23T10:46:39.734Z,48.55
2019-05-23T10:49:09.587Z,47.82
2019-05-23T10:51:39.115Z,47.68
2019-05-23T10:54:08.585Z,47.00
2019-05-23T10:56:38.729Z,47.06
2019-05-23T10:59:08.324Z,47.20
2019-05-23T11:01:38.010Z,46.93
2019-05-23T11:04:08.613Z,46.79
2019-05-23T11:06:38.186Z,46.25
2019-05-23T11:09:09.393Z,46.16
2019-05-23T11:11:38.960Z,43.58
2019-05-23T11:14:09.336Z,45.42
2019-05-23T11:16:39.204Z,45.79
2019-05-23T11:19:09.669Z,46.33
2019-05-23T11:21:39.533Z,45.96
2019-05-23T11:24:10.061Z,45.24
2019-05-23T11:26:39.579Z,44.14
2019-05-23T11:29:09.374Z,43.30
2019-05-23T11:31:39.260Z,43.90
2019-05-23T11:34:09.023Z,42.97
2019-05-23T11:36:38.653Z,42.64
2019-05-23T11:39:09.215Z,41.74
2019-05-23T11:41:38.735Z,41.64
2019-05-23T11:44:08.357Z,44.27
2019-05-23T11:46:41.475Z,41.37
2019-05-23T11:49:11.113Z,40.38
2019-05-23T11:51:40.614Z,40.01
2019-05-23T11:54:10.569Z,40.97
2019-05-23T11:56:40.163Z,40.53
2019-05-23T11:59:10.088Z,39.02
2019-05-23T12:01:48.256Z,40.19
2019-05-23T12:04:22.390Z,42.88
2019-05-23T12:07:16.710Z,44.62
2019-05-23T12:09:46.394Z,45.05
2019-05-23T12:12:15.888Z,43.67
2019-05-23T12:14:45.453Z,43.93
2019-05-23T12:17:16.773Z,42.34
2019-05-23T12:19:46.478Z,42.90
2019-05-23T12:22:18.290Z,43.93
2019-05-23T12:24:47.902Z,43.73
2019-05-23T12:27:17.641Z,43.11
2019-05-23T12:29:47.117Z,44.25
2019-05-23T12:32:16.860Z,42.98
2019-05-23T12:35:08.012Z,41.01
2019-05-23T12:37:20.160Z,41.18
2019-05-23T12:39:48.975Z,41.19
2019-05-23T12:42:18.582Z,39.78
2019-05-23T12:44:48.134Z,41.34
2019-05-23T12:47:25.386Z,42.04
2019-05-23T12:50:00.468Z,42.34
2019-05-23T12:52:29.963Z,42.75
2019-05-23T12:54:59.642Z,41.77
2019-05-23T12:57:29.336Z,41.61
2019-05-23T12:59:59.245Z,42.18
2019-05-23T13:02:29.056Z,40.88
2019-05-23T13:04:59.406Z,40.47
2019-05-23T13:07:36.396Z,41.22
2019-05-23T13:10:00.671Z,40.52
2019-05-23T13:12:30.145Z,41.84
2019-05-23T13:14:59.628Z,43.61
2019-05-23T13:17:29.134Z,44.49
2019-05-23T13:19:58.616Z,44.22
2019-05-23T13:22:28.527Z,45.07
2019-05-23T13:24:58.015Z,46.00
2019-05-23T13:27:27.925Z,45.44
2019-05-23T13:29:57.420Z,45.80
2019-05-23T13:32:26.977Z,46.34
2019-05-23T13:34:56.550Z,45.59
2019-05-23T13:37:26.177Z,45.22
2019-05-23T13:39:55.672Z,45.95
2019-05-23T13:42:25.429Z,46.27
2019-05-23T13:44:55.068Z,45.62
2019-05-23T13:47:24.533Z,45.91
2019-05-23T13:49:54.182Z,45.40
2019-05-23T13:52:23.631Z,45.75
2019-05-23T13:54:53.103Z,44.90
2019-05-23T13:57:22.648Z,45.29
2019-05-23T13:59:52.091Z,44.49
2019-05-23T14:02:21.612Z,44.15
2019-05-23T14:04:51.468Z,43.84
2019-05-23T14:07:20.953Z,44.48
2019-05-23T14:09:50.587Z,42.99
2019-05-23T14:12:21.680Z,42.71
2019-05-23T14:14:51.627Z,42.65
2019-05-23T14:17:42.547Z,42.41
2019-05-23T14:20:12.863Z,42.44
2019-05-23T14:22:47.617Z,42.83
2019-05-23T14:25:17.797Z,42.86
2019-05-23T14:27:55.751Z,43.20
2019-05-23T14:30:43.232Z,42.69
2019-05-23T14:33:27.141Z,42.48
2019-05-23T14:35:57.030Z,43.03
2019-05-23T14:38:31.170Z,43.04
2019-05-23T14:41:00.013Z,42.81
2019-05-23T14:43:29.786Z,42.49
2019-05-23T14:46:24.527Z,42.65
2019-05-23T14:49:16.166Z,41.66
2019-05-23T14:51:55.532Z,39.95
2019-05-23T14:54:37.526Z,40.21
2019-05-23T14:57:07.613Z,40.00
2019-05-23T14:59:37.154Z,40.94
2019-05-23T15:02:10.718Z,40.65
2019-05-23T15:04:40.472Z,40.69
2019-05-23T15:07:10.065Z,41.00
2019-05-23T15:09:39.570Z,41.90
2019-05-23T15:12:09.123Z,41.24
2019-05-23T15:14:38.691Z,41.25
2019-05-23T15:17:08.259Z,40.77
2019-05-23T15:19:44.258Z,42.90
2019-05-23T15:22:13.316Z,43.60
2019-05-23T15:24:42.939Z,43.54
2019-05-23T15:27:12.492Z,43.08
2019-05-23T15:29:42.278Z,43.06
2019-05-23T15:32:11.747Z,43.56
2019-05-23T15:34:41.582Z,44.03
2019-05-23T15:37:11.039Z,43.97
2019-05-23T15:39:40.523Z,43.82
2019-05-23T15:42:09.992Z,44.03
2019-05-23T15:44:39.569Z,44.85
2019-05-23T15:47:10.413Z,45.04
2019-05-23T15:49:41.805Z,45.44
2019-05-23T15:52:36.651Z,45.37
2019-05-23T15:55:25.577Z,45.45
2019-05-23T15:58:03.899Z,44.88
2019-05-23T16:00:55.205Z,44.89
2019-05-23T16:03:34.143Z,44.50
2019-05-23T16:06:05.069Z,44.83
2019-05-23T16:08:34.595Z,44.26
2019-05-23T16:11:04.072Z,44.51
2019-05-23T16:13:34.049Z,44.10
2019-05-23T16:16:04.015Z,44.64
2019-05-23T16:18:34.481Z,44.57
2019-05-23T16:21:03.967Z,44.71
2019-05-23T16:23:33.416Z,45.30
2019-05-23T16:26:02.992Z,45.78
2019-05-23T16:28:32.448Z,46.23
2019-05-23T16:31:01.942Z,46.26
2019-05-23T16:33:31.409Z,46.30
2019-05-23T16:36:00.907Z,47.21
2019-05-23T16:38:30.374Z,47.53
2019-05-23T16:40:59.839Z,47.09
2019-05-23T16:43:29.309Z,47.31
2019-05-23T16:45:58.859Z,47.48
2019-05-23T16:48:29.993Z,47.26
2019-05-23T16:50:59.564Z,47.00
2019-05-23T16:53:29.838Z,46.16
2019-05-23T16:56:05.620Z,45.81
2019-05-23T16:58:47.466Z,45.79
2019-05-23T17:01:35.853Z,46.06
2019-05-23T17:04:21.222Z,46.17
2019-05-23T17:07:09.651Z,46.52
2019-05-23T17:10:08.200Z,46.93
2019-05-23T17:12:57.364Z,47.75
2019-05-23T17:15:55.036Z,48.60
2019-05-23T17:18:52.435Z,49.40
2019-05-23T17:21:56.512Z,50.28
2019-05-23T17:24:34.044Z,50.79
2019-05-23T17:27:09.054Z,51.30
2019-05-23T17:29:43.332Z,51.48
2019-05-23T17:32:15.432Z,51.94
2019-05-23T17:34:44.909Z,52.02
2019-05-23T17:37:14.370Z,52.47
2019-05-23T17:39:45.761Z,52.78
2019-05-23T17:42:15.332Z,53.18
2019-05-23T17:44:44.828Z,53.61
2019-05-23T17:47:15.135Z,53.90
2019-05-23T17:49:44.972Z,54.15
2019-05-23T17:52:14.718Z,54.24
2019-05-23T17:54:44.185Z,54.70
2019-05-23T17:57:14.139Z,55.31
2019-05-23T17:59:43.594Z,55.88
2019-05-23T18:02:13.959Z,56.20
2019-05-23T18:04:43.530Z,56.62
2019-05-23T18:07:13.670Z,57.17
2019-05-23T18:09:43.150Z,57.68
2019-05-23T18:12:12.814Z,58.12
2019-05-23T18:14:43.017Z,58.48
2019-05-23T18:17:12.705Z,58.66
2019-05-23T18:19:42.478Z,59.22
2019-05-23T18:22:14.161Z,59.48
2019-05-23T18:24:43.712Z,59.75
2019-05-23T18:27:13.920Z,59.94
2019-05-23T18:29:43.948Z,59.81
2019-05-23T18:32:19.239Z,59.84
2019-05-23T18:34:49.068Z,59.90
2019-05-23T18:37:19.695Z,60.06
2019-05-23T18:39:49.856Z,60.39
2019-05-23T18:42:19.776Z,60.71
2019-05-23T18:44:50.577Z,60.52
2019-05-23T18:47:31.596Z,60.53
2019-05-23T18:50:01.350Z,60.34
2019-05-23T18:52:31.018Z,60.13
2019-05-23T18:55:00.591Z,60.80
2019-05-23T18:57:30.287Z,61.11
2019-05-23T19:00:00.097Z,61.25
2019-05-23T19:02:30.103Z,61.42
2019-05-23T19:04:59.678Z,61.43
2019-05-23T19:07:29.260Z,61.55
2019-05-23T19:09:59.386Z,61.65
2019-05-23T19:12:28.889Z,61.87
2019-05-23T19:14:58.431Z,62.21
2019-05-23T19:17:27.970Z,62.31
2019-05-23T19:19:57.625Z,62.11
2019-05-23T19:22:27.883Z,62.34
2019-05-23T19:24:57.322Z,62.24
2019-05-23T19:27:27.271Z,62.37
2019-05-23T19:29:57.936Z,62.06
2019-05-23T19:32:27.714Z,62.06
2019-05-23T19:34:57.315Z,61.85
2019-05-23T19:37:27.175Z,62.04
2019-05-23T19:39:56.665Z,62.25
2019-05-23T19:42:26.490Z,62.22
2019-05-23T19:44:55.997Z,62.29
2019-05-23T19:47:25.684Z,62.45
2019-05-23T19:49:55.240Z,62.53
2019-05-23T19:52:25.663Z,62.26
2019-05-23T19:54:55.393Z,62.54
2019-05-23T19:57:25.483Z,62.69
2019-05-23T19:59:55.192Z,62.45
2019-05-23T20:02:45.501Z,62.99
2019-05-23T20:05:34.889Z,62.88
2019-05-23T20:08:04.508Z,63.39
2019-05-23T20:10:34.438Z,63.78
2019-05-23T20:13:04.083Z,63.88
2019-05-23T20:15:33.716Z,64.07
2019-05-23T20:18:03.358Z,64.12
2019-05-23T20:20:35.155Z,63.85
2019-05-23T20:23:04.780Z,64.21
2019-05-23T20:25:34.513Z,64.58
2019-05-23T20:28:04.144Z,64.42
2019-05-23T20:31:03.638Z,64.43
2019-05-23T20:33:33.732Z,63.90
2019-05-23T20:36:12.296Z,64.17
2019-05-23T20:38:41.462Z,64.09
2019-05-23T20:41:10.936Z,63.85
2019-05-23T20:43:40.434Z,64.45
2019-05-23T20:46:09.991Z,64.54
2019-05-23T20:48:39.981Z,64.51
2019-05-23T20:51:09.502Z,64.88
2019-05-23T20:53:39.190Z,65.19
2019-05-23T20:56:08.664Z,65.16
2019-05-23T20:58:38.368Z,65.62
2019-05-23T21:01:16.206Z,65.47
2019-05-23T21:03:45.540Z,65.35
2019-05-23T21:06:15.566Z,65.47
2019-05-23T21:08:45.116Z,65.96
2019-05-23T21:11:14.726Z,66.12
2019-05-23T21:13:44.178Z,66.19
2019-05-23T21:16:13.715Z,66.59
2019-05-23T21:18:43.354Z,66.79
2019-05-23T21:21:12.824Z,67.06
2019-05-23T21:23:42.320Z,66.88
2019-05-23T21:26:11.775Z,67.12
2019-05-23T21:28:41.676Z,67.25
2019-05-23T21:31:15.500Z,67.59
2019-05-23T21:33:44.953Z,67.73
2019-05-23T21:36:14.437Z,67.61
2019-05-23T21:38:43.927Z,67.82
2019-05-23T21:41:13.375Z,68.01
2019-05-23T21:43:43.674Z,68.43
2019-05-23T21:46:13.165Z,68.84
2019-05-23T21:48:42.660Z,68.91
2019-05-23T21:51:12.116Z,68.95
2019-05-23T21:53:41.585Z,69.04
2019-05-23T21:56:11.041Z,69.25
2019-05-23T21:58:40.541Z,69.16
2019-05-23T22:01:33.516Z,69.51
2019-05-23T22:04:14.096Z,69.65
2019-05-23T22:06:50.232Z,69.95
2019-05-23T22:09:20.117Z,69.48
2019-05-23T22:11:50.008Z,69.69
2019-05-23T22:14:19.529Z,69.91
2019-05-23T22:16:49.025Z,70.10
2019-05-23T22:19:20.913Z,70.38
2019-05-23T22:21:50.385Z,70.27
2019-05-23T22:24:20.727Z,70.48
2019-05-23T22:26:50.235Z,70.57
2019-05-23T22:29:19.723Z,70.53
2019-05-23T22:31:49.273Z,70.07
2019-05-23T22:34:37.688Z,70.35
2019-05-23T22:37:15.644Z,70.30
2019-05-23T22:39:45.173Z,70.50
2019-05-23T22:42:15.828Z,70.05
2019-05-23T22:44:45.411Z,70.22
2019-05-23T22:47:14.914Z,70.05
2019-05-23T22:49:44.390Z,69.83
2019-05-23T22:52:13.855Z,69.86
2019-05-23T22:54:43.456Z,69.90
2019-05-23T22:57:13.057Z,69.66
2019-05-23T22:59:42.601Z,69.56
2019-05-23T23:02:15.078Z,69.81
2019-05-23T23:04:44.583Z,69.60
2019-05-23T23:07:14.208Z,69.67
2019-05-23T23:09:43.763Z,69.88
2019-05-23T23:12:13.244Z,70.35
2019-05-23T23:14:42.752Z,70.27
2019-05-23T23:17:12.280Z,70.53
2019-05-23T23:19:41.795Z,70.65
2019-05-23T23:22:13.517Z,70.54
2019-05-23T23:24:43.050Z,70.75
2019-05-23T23:27:12.603Z,70.63
2019-05-23T23:29:42.100Z,70.92
2019-05-23T23:32:11.741Z,70.86
2019-05-23T23:34:41.278Z,70.81
2019-05-23T23:37:10.752Z,70.59
2019-05-23T23:39:40.289Z,70.84
2019-05-23T23:42:10.122Z,70.88
2019-05-23T23:44:38.603Z,70.82
2019-05-23T23:47:26.118Z,70.65
2019-05-23T23:50:13.434Z,70.37
2019-05-23T23:53:00.423Z,70.34
2019-05-23T23:55:47.888Z,69.98
2019-05-23T23:58:16.463Z,70.33
